Terminal Aerodrome Forecast
Issued by NWS Wichita, KS

Home | Current Version | Previous Version | Text Only | Print | Product List | Glossary On
Versions: 1 2 3 4 5 6 7 8 9 10 11 12 13 14
494
FTUS43 KICT 232339
TAFICT
TAF
KICT 232339Z 2400/2424 15007KT P6SM FEW250
     FM241000 17011KT P6SM FEW250 WS020/19045KT
     FM241400 18026G36KT P6SM FEW250=

USA.gov is the U.S. government's official web portal to all federal, state and local government web resources and services.